Terminal Aerodrome Forecast
Issued by NWS

Home | Current Version | Previous Version | Text Only | Print | Product List | Glossary On
Versions: 1 2 3 4 5 6 7 8 9 10 11 12 13 14 15 16 17 18 19 20 21
158
FTUS43 KIND 300200 AAA
TAFHUF
TAF AMD
KHUF 300200Z 3002/3024 11013KT P6SM BKN080
     FM300700 12010KT P6SM VCTS OVC080CB
     FM301000 11010KT 6SM -SHRA VCTS OVC050CB
     FM301100 12010KT 5SM -SHRA VCTS OVC050CB
     FM301200 12010KT 6SM -SHRA VCTS OVC040CB
     FM301500 14012KT P6SM -SHRA VCTS OVC015CB
     FM301700 15013KT P6SM -SHRA VCTS OVC040CB
     FM301800 17013KT P6SM SHRA VCTS OVC040CB=

USA.gov is the U.S. government's official web portal to all federal, state and local government web resources and services.